Terminal Aerodrome Forecast
Issued by NWS

Current Version | Previous Version | Graphics & Text | Print | Product List | Glossary On
Versions: 1 2 3 4 5 6 7 8 9 10 11 12 13 14 15 16 17 18
000
FTUS41 KPBZ 232321
TAFHLG
TAF
KHLG 232321Z 2400/2424 12005KT P6SM FEW250
     FM240600 16005KT P6SM VCSH BKN100 WS020/20040KT
     FM241400 21009KT P6SM BKN070=

USA.gov is the U.S. government's official web portal to all federal, state and local government web resources and services.